createdAt,value
2023-05-06T00:01:24.468Z,17.02
2023-05-06T00:03:52.678Z,17.09
2023-05-06T00:06:21.397Z,17.03
2023-05-06T00:08:49.293Z,16.96
2023-05-06T00:11:17.170Z,16.99
2023-05-06T00:13:45.031Z,17.01
2023-05-06T00:16:13.008Z,17.03
2023-05-06T00:18:41.689Z,17.01
2023-05-06T00:21:09.606Z,16.89
2023-05-06T00:23:37.455Z,16.83
2023-05-06T00:26:05.671Z,16.71
2023-05-06T00:28:34.055Z,16.69
2023-05-06T00:31:01.860Z,16.67
2023-05-06T00:33:29.898Z,16.69
2023-05-06T00:35:57.794Z,16.68
2023-05-06T00:38:26.460Z,16.75
2023-05-06T00:40:54.341Z,16.78
2023-05-06T00:43:22.281Z,16.73
2023-05-06T00:45:51.606Z,16.71
2023-05-06T00:48:19.518Z,16.69
2023-05-06T00:50:47.441Z,16.58
2023-05-06T00:53:15.482Z,16.48
2023-05-06T00:55:43.881Z,16.46
2023-05-06T00:58:12.551Z,16.45
2023-05-06T01:00:40.434Z,16.43
2023-05-06T01:03:08.647Z,16.41
2023-05-06T01:05:52.519Z,16.39
2023-05-06T01:08:34.994Z,16.50
2023-05-06T01:11:08.198Z,16.50
2023-05-06T01:13:48.910Z,16.45
2023-05-06T01:16:21.978Z,16.40
2023-05-06T01:18:52.941Z,16.35
2023-05-06T01:21:22.334Z,16.24
2023-05-06T01:23:52.306Z,16.27
2023-05-06T01:26:20.226Z,16.22
2023-05-06T01:28:48.573Z,16.16
2023-05-06T01:31:30.281Z,16.15
2023-05-06T01:33:58.189Z,16.17
2023-05-06T01:36:32.939Z,16.07
2023-05-06T01:39:09.800Z,16.04
2023-05-06T01:41:41.306Z,16.05
2023-05-06T01:44:12.073Z,15.99
2023-05-06T01:46:43.248Z,15.96
2023-05-06T01:49:12.328Z,15.97
2023-05-06T01:51:40.348Z,15.95
2023-05-06T01:54:09.495Z,15.92
2023-05-06T01:56:37.351Z,15.92
2023-05-06T01:59:05.253Z,15.90
2023-05-06T02:01:33.167Z,15.95
2023-05-06T02:04:01.674Z,15.93
2023-05-06T02:06:29.886Z,15.91
2023-05-06T02:08:57.765Z,15.92
2023-05-06T02:11:26.927Z,15.90
2023-05-06T02:14:02.178Z,15.85
2023-05-06T02:16:32.601Z,15.83
2023-05-06T02:19:01.091Z,15.89
2023-05-06T02:21:29.730Z,15.85
2023-05-06T02:23:58.020Z,15.85
2023-05-06T02:26:26.751Z,15.92
2023-05-06T02:28:54.512Z,15.88
2023-05-06T02:31:22.900Z,15.90
2023-05-06T02:33:50.982Z,15.82
2023-05-06T02:36:18.796Z,15.84
2023-05-06T02:38:48.000Z,15.79
2023-05-06T02:41:15.930Z,15.76
2023-05-06T02:43:43.804Z,15.77
2023-05-06T02:46:11.762Z,15.81
2023-05-06T02:48:39.785Z,15.78
2023-05-06T02:51:07.872Z,15.74
2023-05-06T02:53:36.128Z,15.82
2023-05-06T02:56:04.235Z,15.79
2023-05-06T02:58:32.197Z,15.90
2023-05-06T03:01:00.044Z,15.93
2023-05-06T03:03:27.913Z,15.94
2023-05-06T03:05:55.754Z,16.20
2023-05-06T03:08:23.750Z,16.13
2023-05-06T03:10:52.659Z,15.92
2023-05-06T03:13:21.761Z,15.71
2023-05-06T03:15:56.549Z,15.69
2023-05-06T03:18:24.822Z,15.68
2023-05-06T03:20:52.802Z,15.66
2023-05-06T03:23:24.657Z,15.74
2023-05-06T03:25:52.624Z,15.83
2023-05-06T03:28:21.181Z,15.90
2023-05-06T03:30:49.931Z,15.89
2023-05-06T03:33:18.379Z,15.88
2023-05-06T03:35:46.421Z,15.79
2023-05-06T03:38:14.541Z,15.75
2023-05-06T03:40:49.335Z,15.78
2023-05-06T03:43:17.330Z,15.73
2023-05-06T03:45:51.112Z,15.80
2023-05-06T03:48:19.131Z,15.82
2023-05-06T03:50:47.480Z,15.79
2023-05-06T03:53:16.661Z,15.72
2023-05-06T03:55:47.717Z,15.74
2023-05-06T03:58:15.806Z,15.80
2023-05-06T04:00:45.958Z,15.92
2023-05-06T04:03:14.090Z,15.88
2023-05-06T04:05:47.152Z,15.97
2023-05-06T04:08:17.465Z,15.90
2023-05-06T04:10:46.223Z,15.89
2023-05-06T04:13:34.991Z,15.96
2023-05-06T04:16:06.846Z,15.93
2023-05-06T04:18:39.932Z,15.85
2023-05-06T04:21:13.799Z,15.96
2023-05-06T04:23:44.642Z,16.03
2023-05-06T04:26:16.491Z,16.10
2023-05-06T04:28:45.688Z,16.17
2023-05-06T04:31:14.899Z,16.27
2023-05-06T04:33:49.322Z,16.23
2023-05-06T04:36:22.204Z,16.24
2023-05-06T04:39:11.634Z,16.25
2023-05-06T04:41:42.236Z,16.28
2023-05-06T04:44:13.104Z,16.30
2023-05-06T04:46:43.886Z,16.28
2023-05-06T04:49:12.521Z,16.28
2023-05-06T04:51:41.121Z,16.25
2023-05-06T04:54:08.980Z,16.35
2023-05-06T04:56:36.923Z,16.41
2023-05-06T04:59:06.492Z,16.35
2023-05-06T05:01:35.393Z,16.31
2023-05-06T05:04:03.368Z,16.42
2023-05-06T05:06:32.171Z,16.45
2023-05-06T05:09:00.665Z,16.59
2023-05-06T05:11:29.727Z,16.78
2023-05-06T05:14:01.019Z,16.80
2023-05-06T05:16:31.303Z,16.71
2023-05-06T05:19:00.895Z,16.77
2023-05-06T05:21:32.052Z,16.74
2023-05-06T05:24:00.216Z,16.99
2023-05-06T05:26:28.986Z,17.42
2023-05-06T05:28:59.479Z,17.76
2023-05-06T05:31:27.500Z,18.02
2023-05-06T05:33:55.709Z,18.27
2023-05-06T05:36:24.550Z,18.61
2023-05-06T05:38:55.530Z,18.53
2023-05-06T05:41:27.026Z,18.51
2023-05-06T05:43:56.408Z,18.46
2023-05-06T05:46:25.001Z,18.54
2023-05-06T05:48:53.332Z,18.52
2023-05-06T05:51:23.448Z,18.62
2023-05-06T05:53:55.325Z,18.61
2023-05-06T05:56:26.453Z,18.77
2023-05-06T05:58:54.991Z,18.80
2023-05-06T06:01:22.829Z,18.84
2023-05-06T06:03:50.912Z,18.88
2023-05-06T06:06:18.957Z,18.99
2023-05-06T06:08:47.446Z,19.14
2023-05-06T06:11:16.142Z,19.10
2023-05-06T06:13:44.297Z,19.24
2023-05-06T06:16:12.223Z,19.28
2023-05-06T06:18:40.191Z,19.30
2023-05-06T06:21:08.097Z,19.37
2023-05-06T06:23:36.684Z,19.40
2023-05-06T06:26:04.926Z,19.49
2023-05-06T06:28:34.179Z,19.52
2023-05-06T06:31:02.158Z,19.57
2023-05-06T06:33:30.216Z,19.65
2023-05-06T06:35:58.614Z,19.73
2023-05-06T06:38:26.666Z,19.70
2023-05-06T06:40:54.836Z,19.81
2023-05-06T06:43:24.017Z,19.93
2023-05-06T06:46:02.668Z,19.80
2023-05-06T06:48:32.965Z,19.97
2023-05-06T06:51:00.994Z,19.96
2023-05-06T06:53:28.890Z,20.09
2023-05-06T06:55:56.909Z,20.21
2023-05-06T06:58:24.859Z,20.28
2023-05-06T07:00:52.908Z,20.35
2023-05-06T07:03:21.032Z,20.37
2023-05-06T07:05:55.973Z,20.49
2023-05-06T07:08:27.214Z,20.56
2023-05-06T07:10:55.879Z,20.73
2023-05-06T07:13:23.820Z,20.76
2023-05-06T07:15:51.782Z,20.81
2023-05-06T07:18:20.099Z,20.89
2023-05-06T07:20:48.061Z,20.94
2023-05-06T07:23:16.235Z,21.03
2023-05-06T07:25:44.132Z,21.06
2023-05-06T07:28:12.206Z,21.21
2023-05-06T07:30:40.305Z,21.20
2023-05-06T07:33:08.308Z,21.27
2023-05-06T07:35:37.029Z,21.23
2023-05-06T07:38:04.920Z,21.38
2023-05-06T07:40:32.966Z,21.45
2023-05-06T07:43:02.895Z,21.39
2023-05-06T07:45:30.918Z,21.46
2023-05-06T07:47:58.986Z,21.46
2023-05-06T07:50:26.981Z,21.54
2023-05-06T07:52:57.527Z,21.50
2023-05-06T07:55:28.755Z,21.62
2023-05-06T07:57:56.690Z,21.75
2023-05-06T08:00:24.703Z,21.85
2023-05-06T08:02:52.700Z,21.84
2023-05-06T08:05:20.705Z,21.87
2023-05-06T08:07:50.298Z,22.00
2023-05-06T08:10:18.904Z,21.87
2023-05-06T08:12:46.799Z,22.07
2023-05-06T08:15:14.882Z,22.08
2023-05-06T08:17:42.977Z,22.21
2023-05-06T08:20:11.563Z,22.24
2023-05-06T08:22:39.850Z,22.13
2023-05-06T08:25:08.161Z,22.19
2023-05-06T08:27:36.528Z,22.35
2023-05-06T08:30:04.862Z,22.32
2023-05-06T08:32:32.687Z,22.42
2023-05-06T08:35:03.050Z,22.35
2023-05-06T08:37:31.074Z,22.47
2023-05-06T08:40:00.013Z,22.54
2023-05-06T08:42:30.642Z,22.55
2023-05-06T08:45:00.044Z,22.73
2023-05-06T08:47:28.018Z,22.64
2023-05-06T08:49:56.380Z,22.74
2023-05-06T08:52:24.333Z,22.69
2023-05-06T08:54:55.704Z,22.84
2023-05-06T08:57:23.585Z,22.84
2023-05-06T08:59:51.993Z,22.98
2023-05-06T09:02:20.616Z,22.89
2023-05-06T09:04:53.626Z,22.92
2023-05-06T09:07:22.353Z,23.07
2023-05-06T09:09:51.776Z,23.15
2023-05-06T09:12:19.732Z,23.32
2023-05-06T09:14:50.360Z,23.29
2023-05-06T09:17:28.177Z,23.32
2023-05-06T09:19:57.830Z,23.44
2023-05-06T09:22:31.025Z,23.49
2023-05-06T09:24:59.323Z,23.45
2023-05-06T09:27:33.298Z,23.36
2023-05-06T09:30:02.575Z,23.42
2023-05-06T09:32:33.330Z,23.39
2023-05-06T09:35:01.967Z,23.46
2023-05-06T09:37:30.236Z,23.70
2023-05-06T09:40:00.710Z,23.70
2023-05-06T09:42:30.211Z,23.80
2023-05-06T09:45:08.068Z,23.76
2023-05-06T09:47:36.208Z,23.99
2023-05-06T09:50:05.071Z,24.13
2023-05-06T09:52:34.269Z,24.20
2023-05-06T09:55:03.962Z,24.26
2023-05-06T09:57:33.480Z,24.24
2023-05-06T10:00:03.064Z,24.31
2023-05-06T10:02:45.895Z,24.46
2023-05-06T10:05:14.681Z,24.53
2023-05-06T10:07:43.056Z,24.37
2023-05-06T10:10:12.383Z,24.56
2023-05-06T10:12:40.504Z,24.78
2023-05-06T10:15:09.579Z,24.70
2023-05-06T10:17:41.894Z,24.76
2023-05-06T10:20:13.865Z,24.68
2023-05-06T10:22:49.539Z,24.77
2023-05-06T10:25:36.110Z,24.78
2023-05-06T10:28:15.566Z,24.82
2023-05-06T10:30:51.117Z,25.08
2023-05-06T10:33:22.455Z,25.10
2023-05-06T10:36:03.437Z,25.11
2023-05-06T10:38:37.965Z,25.22
2023-05-06T10:41:08.357Z,25.20
2023-05-06T10:43:41.690Z,25.32
2023-05-06T10:46:17.724Z,24.89
2023-05-06T10:49:06.950Z,25.10
2023-05-06T10:51:38.842Z,25.12
2023-05-06T10:54:10.764Z,25.25
2023-05-06T10:56:40.959Z,25.48
2023-05-06T10:59:11.457Z,25.55
2023-05-06T11:01:44.181Z,25.54
2023-05-06T11:04:14.772Z,25.54
2023-05-06T11:06:44.890Z,25.62
2023-05-06T11:09:22.647Z,25.46
2023-05-06T11:12:03.908Z,25.65
2023-05-06T11:14:36.197Z,25.54
2023-05-06T11:17:05.648Z,25.54
2023-05-06T11:19:35.551Z,25.60
2023-05-06T11:22:05.481Z,25.66
2023-05-06T11:24:43.867Z,25.76
2023-05-06T11:27:11.824Z,25.80
2023-05-06T11:29:39.676Z,25.74
2023-05-06T11:32:23.829Z,25.62
2023-05-06T11:34:55.144Z,26.00
2023-05-06T11:37:27.721Z,26.28
2023-05-06T11:39:55.940Z,26.53
2023-05-06T11:42:28.320Z,26.34
2023-05-06T11:44:56.610Z,26.52
2023-05-06T11:47:24.905Z,26.59
2023-05-06T11:49:55.348Z,26.39
2023-05-06T11:52:25.955Z,26.55
2023-05-06T11:54:54.776Z,26.69
2023-05-06T11:57:22.715Z,26.60
2023-05-06T11:59:54.325Z,26.87
2023-05-06T12:02:22.214Z,26.97
2023-05-06T12:04:50.460Z,27.07
2023-05-06T12:07:18.419Z,27.34
2023-05-06T12:09:48.773Z,27.35
2023-05-06T12:12:19.554Z,27.36
2023-05-06T12:14:49.469Z,27.43
2023-05-06T12:17:17.723Z,27.49
2023-05-06T12:19:46.768Z,27.51
2023-05-06T12:22:19.930Z,27.44
2023-05-06T12:24:49.097Z,27.35
2023-05-06T12:27:37.374Z,27.50
2023-05-06T12:30:09.366Z,27.62
2023-05-06T12:32:57.035Z,27.55
2023-05-06T12:35:26.729Z,27.79
2023-05-06T12:37:55.773Z,27.73
2023-05-06T12:40:24.313Z,27.55
2023-05-06T12:42:58.151Z,27.60
2023-05-06T12:45:26.200Z,27.79
2023-05-06T12:47:56.022Z,27.84
2023-05-06T12:50:38.023Z,27.69
2023-05-06T12:53:07.334Z,27.67
2023-05-06T12:55:37.465Z,27.86
2023-05-06T12:58:15.931Z,27.80
2023-05-06T13:00:43.987Z,27.90
2023-05-06T13:03:13.877Z,27.89
2023-05-06T13:05:42.106Z,28.17
2023-05-06T13:08:09.980Z,28.10
2023-05-06T13:10:37.963Z,27.95
2023-05-06T13:13:05.955Z,27.78
2023-05-06T13:15:35.543Z,27.60
2023-05-06T13:18:03.808Z,27.71
2023-05-06T13:20:32.584Z,27.88
2023-05-06T13:23:00.433Z,28.19
2023-05-06T13:25:28.335Z,28.40
2023-05-06T13:27:57.283Z,28.57
2023-05-06T13:30:25.251Z,28.09
2023-05-06T13:32:53.236Z,28.30
2023-05-06T13:35:21.500Z,28.11
2023-05-06T13:37:49.365Z,28.49
2023-05-06T13:40:17.343Z,28.64
2023-05-06T13:42:45.176Z,28.31
2023-05-06T13:45:14.593Z,28.60
2023-05-06T13:47:43.245Z,28.32
2023-05-06T13:50:11.634Z,28.47
2023-05-06T13:52:39.524Z,28.54
2023-05-06T13:55:08.600Z,28.50
2023-05-06T13:57:36.512Z,28.46
2023-05-06T14:00:07.524Z,28.64
2023-05-06T14:02:35.398Z,28.47
2023-05-06T14:05:03.595Z,28.34
2023-05-06T14:07:31.456Z,28.30
2023-05-06T14:09:59.320Z,28.16
2023-05-06T14:12:27.133Z,27.93
2023-05-06T14:14:54.986Z,27.74
2023-05-06T14:17:25.558Z,27.69
2023-05-06T14:19:53.490Z,27.79
2023-05-06T14:22:21.470Z,27.86
2023-05-06T14:24:49.351Z,27.84
2023-05-06T14:27:17.215Z,27.96
2023-05-06T14:29:46.302Z,27.72
2023-05-06T14:32:14.384Z,27.60
2023-05-06T14:34:42.153Z,27.35
2023-05-06T14:37:10.082Z,27.18
2023-05-06T14:39:37.929Z,27.17
2023-05-06T14:42:05.922Z,27.10
2023-05-06T14:44:33.749Z,27.06
2023-05-06T14:47:01.839Z,26.69
2023-05-06T14:49:29.765Z,26.77
2023-05-06T14:51:57.704Z,26.96
2023-05-06T14:54:26.992Z,27.00
2023-05-06T14:56:55.111Z,26.86
2023-05-06T14:59:24.179Z,26.85
2023-05-06T15:01:54.387Z,26.81
2023-05-06T15:04:22.266Z,26.65
2023-05-06T15:06:50.100Z,26.70
2023-05-06T15:09:18.011Z,26.73
2023-05-06T15:11:46.166Z,26.56
2023-05-06T15:14:13.963Z,26.58
2023-05-06T15:16:41.937Z,26.49
2023-05-06T15:19:09.841Z,26.48
2023-05-06T15:21:37.712Z,26.52
2023-05-06T15:24:05.845Z,26.53
2023-05-06T15:26:33.697Z,26.63
2023-05-06T15:29:01.560Z,26.50
2023-05-06T15:31:32.145Z,26.51
2023-05-06T15:34:00.872Z,26.57
2023-05-06T15:36:28.750Z,26.58
2023-05-06T15:39:00.511Z,26.48
2023-05-06T15:41:31.031Z,26.58
2023-05-06T15:44:00.315Z,26.51
2023-05-06T15:46:29.273Z,26.42
2023-05-06T15:49:17.410Z,26.53
2023-05-06T15:51:45.473Z,26.45
2023-05-06T15:54:13.732Z,26.55
2023-05-06T15:56:41.821Z,26.76
2023-05-06T15:59:09.657Z,26.67
2023-05-06T16:02:16.607Z,26.56
2023-05-06T16:04:25.636Z,26.36
2023-05-06T16:06:53.667Z,26.59
2023-05-06T16:09:21.515Z,26.91
2023-05-06T16:11:49.656Z,26.48
2023-05-06T16:14:17.448Z,26.79
2023-05-06T16:16:45.374Z,26.77
2023-05-06T16:19:13.360Z,26.43
2023-05-06T16:21:41.179Z,26.49
2023-05-06T16:24:09.323Z,26.70
2023-05-06T16:26:37.422Z,26.54
2023-05-06T16:29:05.265Z,26.66
2023-05-06T16:31:34.113Z,26.47
2023-05-06T16:34:02.013Z,26.47
2023-05-06T16:36:30.144Z,26.38
2023-05-06T16:38:58.023Z,26.25
2023-05-06T16:41:26.175Z,26.24
2023-05-06T16:43:54.516Z,26.22
2023-05-06T16:46:24.291Z,26.20
2023-05-06T16:48:56.095Z,26.10
2023-05-06T16:51:24.446Z,26.16
2023-05-06T16:53:52.661Z,26.07
2023-05-06T16:56:20.771Z,26.05
2023-05-06T16:58:48.581Z,26.11
2023-05-06T17:01:16.468Z,26.15
2023-05-06T17:03:44.453Z,26.07
2023-05-06T17:06:12.435Z,26.02
2023-05-06T17:08:40.899Z,26.06
2023-05-06T17:11:08.699Z,25.95
2023-05-06T17:13:36.681Z,25.93
2023-05-06T17:16:04.782Z,25.98
2023-05-06T17:18:32.652Z,25.87
2023-05-06T17:21:00.603Z,25.88
2023-05-06T17:23:28.486Z,25.68
2023-05-06T17:25:57.221Z,25.75
2023-05-06T17:28:25.226Z,25.62
2023-05-06T17:30:53.201Z,25.61
2023-05-06T17:33:22.161Z,25.56
2023-05-06T17:35:50.591Z,25.26
2023-05-06T17:38:18.678Z,25.02
2023-05-06T17:40:46.538Z,24.87
2023-05-06T17:43:14.416Z,24.83
2023-05-06T17:45:42.261Z,24.77
2023-05-06T17:48:10.322Z,24.77
2023-05-06T17:50:38.291Z,24.69
2023-05-06T17:53:06.111Z,24.80
2023-05-06T17:55:34.039Z,24.70
2023-05-06T17:58:01.882Z,24.77
2023-05-06T18:00:29.928Z,24.71
2023-05-06T18:02:58.077Z,24.50
2023-05-06T18:05:26.442Z,24.47
2023-05-06T18:07:54.297Z,24.47
2023-05-06T18:10:22.143Z,24.47
2023-05-06T18:12:50.145Z,24.51
2023-05-06T18:15:18.566Z,24.42
2023-05-06T18:17:46.566Z,24.21
2023-05-06T18:20:14.419Z,24.14
2023-05-06T18:22:43.103Z,24.15
2023-05-06T18:25:11.303Z,24.10
2023-05-06T18:27:39.538Z,24.05
2023-05-06T18:30:07.920Z,24.03
2023-05-06T18:32:36.053Z,23.80
2023-05-06T18:35:07.152Z,23.82
2023-05-06T18:37:35.066Z,23.82
2023-05-06T18:40:04.483Z,23.81
2023-05-06T18:42:33.832Z,23.68
2023-05-06T18:45:04.997Z,23.61
2023-05-06T18:47:33.164Z,23.70
2023-05-06T18:50:01.326Z,23.72
2023-05-06T18:52:29.396Z,23.68
2023-05-06T18:54:57.188Z,23.73
2023-05-06T18:57:27.088Z,23.74
2023-05-06T18:59:54.985Z,23.66
2023-05-06T19:02:23.161Z,23.60
2023-05-06T19:04:51.100Z,23.57
2023-05-06T19:07:18.977Z,23.40
2023-05-06T19:09:48.789Z,23.39
2023-05-06T19:12:16.725Z,23.31
2023-05-06T19:14:44.630Z,23.14
2023-05-06T19:17:12.596Z,22.92
2023-05-06T19:19:41.336Z,22.86
2023-05-06T19:22:09.256Z,22.80
2023-05-06T19:24:37.165Z,22.75
2023-05-06T19:27:05.065Z,22.75
2023-05-06T19:29:33.136Z,22.72
2023-05-06T19:32:02.411Z,22.62
2023-05-06T19:34:30.518Z,22.63
2023-05-06T19:36:58.531Z,22.50
2023-05-06T19:39:26.408Z,22.42
2023-05-06T19:41:55.882Z,22.34
2023-05-06T19:44:23.720Z,22.28
2023-05-06T19:46:56.394Z,22.23
2023-05-06T19:49:24.481Z,22.21
2023-05-06T19:51:52.460Z,22.17
2023-05-06T19:54:20.409Z,22.09
2023-05-06T19:56:48.256Z,21.98
2023-05-06T19:59:17.697Z,21.96
2023-05-06T20:01:47.392Z,21.90
2023-05-06T20:04:15.477Z,21.87
2023-05-06T20:06:43.404Z,21.78
2023-05-06T20:09:11.316Z,21.66
2023-05-06T20:11:40.076Z,21.57
2023-05-06T20:14:07.913Z,21.55
2023-05-06T20:16:35.960Z,21.58
2023-05-06T20:19:03.865Z,21.57
2023-05-06T20:21:31.879Z,21.46
2023-05-06T20:23:59.813Z,21.43
2023-05-06T20:26:27.689Z,21.38
2023-05-06T20:28:55.617Z,21.42
2023-05-06T20:31:23.446Z,21.26
2023-05-06T20:33:51.705Z,21.18
2023-05-06T20:36:19.952Z,21.15
2023-05-06T20:38:49.217Z,21.24
2023-05-06T20:41:17.171Z,21.21
2023-05-06T20:43:45.124Z,21.23
2023-05-06T20:46:13.164Z,21.35
2023-05-06T20:48:41.345Z,21.34
2023-05-06T20:51:09.166Z,21.34
2023-05-06T20:53:37.397Z,21.24
2023-05-06T20:56:16.174Z,21.07
2023-05-06T20:58:44.039Z,20.97
2023-05-06T21:01:12.173Z,20.98
2023-05-06T21:03:40.153Z,20.99
2023-05-06T21:06:08.406Z,20.90
2023-05-06T21:08:36.542Z,21.06
2023-05-06T21:11:04.465Z,21.01
2023-05-06T21:13:32.968Z,20.82
2023-05-06T21:16:03.978Z,20.59
2023-05-06T21:18:31.939Z,20.65
2023-05-06T21:20:59.998Z,20.61
2023-05-06T21:23:27.919Z,20.52
2023-05-06T21:25:55.922Z,20.53
2023-05-06T21:28:24.050Z,20.62
2023-05-06T21:30:52.079Z,20.62
2023-05-06T21:33:20.049Z,20.53
2023-05-06T21:35:47.960Z,20.49
2023-05-06T21:38:15.714Z,20.44
2023-05-06T21:40:43.669Z,20.38
2023-05-06T21:43:12.609Z,20.33
2023-05-06T21:45:40.458Z,20.32
2023-05-06T21:48:08.397Z,20.18
2023-05-06T21:50:39.446Z,20.26
2023-05-06T21:53:07.312Z,20.32
2023-05-06T21:55:36.662Z,20.18
2023-05-06T21:58:04.573Z,20.26
2023-05-06T22:00:32.461Z,20.20
2023-05-06T22:03:01.187Z,20.20
2023-05-06T22:05:29.522Z,20.21
2023-05-06T22:07:57.425Z,20.26
2023-05-06T22:10:25.939Z,20.20
2023-05-06T22:12:54.194Z,20.18
2023-05-06T22:15:22.087Z,20.14
2023-05-06T22:17:50.177Z,19.98
2023-05-06T22:20:18.229Z,19.91
2023-05-06T22:22:46.371Z,19.92
2023-05-06T22:25:16.355Z,19.85
2023-05-06T22:27:44.311Z,19.86
2023-05-06T22:30:13.626Z,19.84
2023-05-06T22:32:41.506Z,20.00
2023-05-06T22:35:09.846Z,19.86
2023-05-06T22:37:38.018Z,19.93
2023-05-06T22:40:07.271Z,19.85
2023-05-06T22:42:35.175Z,19.85
2023-05-06T22:45:03.247Z,19.88
2023-05-06T22:47:31.530Z,19.94
2023-05-06T22:49:59.393Z,19.77
2023-05-06T22:52:27.358Z,19.79
2023-05-06T22:54:55.300Z,19.73
2023-05-06T22:57:25.533Z,19.82
2023-05-06T22:59:53.462Z,19.82
2023-05-06T23:02:21.376Z,19.76
2023-05-06T23:04:49.236Z,19.83
2023-05-06T23:07:17.215Z,19.82
2023-05-06T23:09:45.172Z,19.90
2023-05-06T23:12:13.054Z,19.99
2023-05-06T23:14:40.978Z,19.91
2023-05-06T23:17:08.908Z,19.84
2023-05-06T23:19:37.041Z,19.70
2023-05-06T23:22:04.928Z,19.70
2023-05-06T23:24:32.835Z,19.62
2023-05-06T23:27:01.240Z,19.46
2023-05-06T23:29:29.057Z,19.58
2023-05-06T23:31:56.879Z,19.60
2023-05-06T23:34:25.037Z,19.50
2023-05-06T23:36:53.124Z,19.56
2023-05-06T23:39:21.372Z,19.51
2023-05-06T23:41:49.229Z,19.54
2023-05-06T23:44:17.098Z,19.61
2023-05-06T23:46:45.032Z,19.52
2023-05-06T23:49:12.991Z,19.42
2023-05-06T23:51:40.883Z,19.28
2023-05-06T23:54:08.800Z,19.22
2023-05-06T23:56:36.731Z,19.20
2023-05-06T23:59:04.637Z,19.18
